Terminal Aerodrome Forecast
Issued by NWS

Home | Current Version | Previous Version | Text Only | Print | Product List | Glossary On
Versions: 1 2 3 4 5 6 7 8 9 10 11 12 13 14 15 16 17 18 19 20 21 22 23 24 25
000
FTUS42 KCAE 291740
TAFOGB
TAF
KOGB 291740Z 2918/3018 36012G24KT 5SM -SHRA BR SCT008 OVC018
      TEMPO 2918/2921 2SM +SHRA BR BKN008 OVC015
     FM300300 36010G18KT 4SM -SHRA BR SCT007 OVC012
     FM300800 34010G18KT 5SM -SHRA BR BKN007 OVC012
     FM301500 25008KT P6SM VCSH SCT007 OVC020=

USA.gov is the U.S. government's official web portal to all federal, state and local government web resources and services.